Thursday, August 28, 2014
15:13 UTC
  |  Log In   |  Register Free
Airport Search:

Jackson-Evers International Airport
(KJAN)

FAA data valid effective July 24, 2014 until September 18, 2014 (unless otherwise noted).

 
 
 
 
 
 
 
 
 
 
 
 
 
 

Current Aviation Weather for Jackson-Evers International Airport (KJAN)

The most recent METAR observation for KJAN was updated at: 1154 UTC
METAR Summary (Translated METAR)
KJAN
281154Z 00000KT 10SM FEW250 21/19 A3001 RMK AO2 SLP158 T02110194 10228 20200 51005
KHKS
(7.6 nm NW from KJAN)
281153Z AUTO 00000KT 10SM CLR 22/19 A3002 RMK AO2 SLP156 7//// T02220194 10233 20217 53006
TAF Summary (Translated TAF)
KJAN
281120Z 2812/2912 VRB04KT P6SM FEW250
KHKS
(7.6 nm NW from KJAN)
281120Z 2812/2912 VRB04KT P6SM FEW250
  Airport Weather Conditions for KJAN

 Current Weather at JAN
81° F
A Few Clouds
North winds at 0.0 mph
JAN NOAA Radar

Pressure: 30.02 in
Humidity: 77%
Wind: Calm
Dew Point: 73.0°F
Visibility: 10.00 mi


Airport Weather Forecast for KJAN

Translated METAR and TAF for KJAN
Translated METAR for KJAN (1507 UTC 28 August 2014)
found at http://aviationweather.gov/adds/metars/
 
METAR text: KJAN 281454Z VRB03KT 10SM CLR 31/20 A3002 RMK AO2 SLP161 T03060200 51003
Conditions at: KJAN (JACKSON , MS, US) observed 1454 UTC 28 August 2014
Temperature: 30.6°C (87°F)
Dewpoint: 20.0°C (68°F) [RH = 53%]
Pressure (altimeter): 30.02 inches Hg (1016.7 mb)
[Sea-level pressure: 1016.1 mb]
Winds: variable direction winds at 3 MPH (3 knots; 1.6 m/s)
Visibility: 10 or more miles (16+ km)
Ceiling: at least 12,000 feet AGL
Clouds: sky clear below 12,000 feet AGL
Weather: no significant weather observed at this time
Translated TAF for KJAN
Forecast for: KJAN (JACKSON , MS, US)
TAF Text: KJAN 281120Z 2812/2912 VRB04KT P6SM FEW250
Forecast period: 1200 UTC 28 August 2014 to 1200 UTC 29 August 2014
Forecast type: FROM: standard forecast or significant change
Winds: variable direction winds at 5 MPH (4 knots; 2.1 m/s)
Visibility: 6 or more miles (10+ km)
Clouds: few clouds at 25000 feet AGL
Weather: no significant weather forecast for this period

Find All Airport Services Find A Hotel Find A Rental Car Find A Golf Course Find A Restaurant $100 Hamburger



FBO's on the Field
FBO Company Facility Photos Services Transportation Aviation Fuel Prices: Prices include tax
Catering Weather Repair Courtesy Rental Type 100LL JetA JetA+ MOGAS 8087
 
Atlantic Aviation

This FBO has not yet been rated
FS:Chevron
Last Updated: Aug-27
Login to update fuel prices
SS:
Contact Atlantic AviationMore FBO Information
 
Add another FBO Facility Photos Catering Weather Repair Courtesy Rental Type 100LL JetA JetA+ MOGAS 8087
Services Transportation Aviation Fuel Prices: Prices include tax


GlobalAir.com Airport Resource Center model-print
model-print
model-print
model-print